createdAt,value
2022-08-17T00:01:52.589Z,28.73
2022-08-17T00:04:23.803Z,29.37
2022-08-17T00:06:53.347Z,30.05
2022-08-17T00:09:21.507Z,31.63
2022-08-17T00:12:42.248Z,31.20
2022-08-17T00:14:39.992Z,33.20
2022-08-17T00:17:08.636Z,30.13
2022-08-17T00:19:38.230Z,33.50
2022-08-17T00:22:31.815Z,30.60
2022-08-17T00:24:56.243Z,30.52
2022-08-17T00:27:25.166Z,28.50
2022-08-17T00:29:53.410Z,26.35
2022-08-17T00:33:15.711Z,24.58
2022-08-17T00:35:14.201Z,28.35
2022-08-17T00:37:43.023Z,26.80
2022-08-17T00:40:14.433Z,27.63
2022-08-17T00:42:44.109Z,29.27
2022-08-17T00:45:20.448Z,28.73
2022-08-17T00:47:49.693Z,31.38
2022-08-17T00:50:20.416Z,29.58
2022-08-17T00:52:58.830Z,33.83
2022-08-17T00:55:28.233Z,39.30
2022-08-17T00:58:01.453Z,33.45
2022-08-17T01:00:32.091Z,33.55
2022-08-17T01:03:06.548Z,34.33
2022-08-17T01:05:42.084Z,32.67
2022-08-17T01:08:14.727Z,32.55
2022-08-17T01:10:57.213Z,34.30
2022-08-17T01:13:35.488Z,34.40
2022-08-17T01:16:12.904Z,29.00
2022-08-17T01:18:42.477Z,36.22
2022-08-17T01:21:19.443Z,35.17
2022-08-17T01:23:49.469Z,34.00
2022-08-17T01:26:18.854Z,33.80
2022-08-17T01:28:54.048Z,31.33
2022-08-17T01:31:25.699Z,35.33
2022-08-17T01:33:54.066Z,32.15
2022-08-17T01:36:22.917Z,34.42
2022-08-17T01:38:52.883Z,35.80
2022-08-17T01:41:23.710Z,32.20
2022-08-17T01:43:56.082Z,38.83
2022-08-17T01:46:28.271Z,35.13
2022-08-17T01:48:58.008Z,37.50
2022-08-17T01:51:29.408Z,35.13
2022-08-17T01:54:01.741Z,35.58
2022-08-17T01:56:32.308Z,34.85
2022-08-17T01:59:00.975Z,39.10
2022-08-17T02:01:32.816Z,32.95
2022-08-17T02:04:02.127Z,38.20
2022-08-17T02:06:45.106Z,46.65
2022-08-17T02:09:16.639Z,44.85
2022-08-17T02:11:46.528Z,40.78
2022-08-17T02:14:15.615Z,39.63
2022-08-17T02:16:44.147Z,37.97
2022-08-17T02:19:15.700Z,41.03
2022-08-17T02:21:46.807Z,40.38
2022-08-17T02:24:58.366Z,46.08
2022-08-17T02:27:09.409Z,50.20
2022-08-17T02:29:38.255Z,47.25
2022-08-17T02:32:07.047Z,49.88
2022-08-17T02:34:35.634Z,48.45
2022-08-17T02:37:03.884Z,43.95
2022-08-17T02:39:33.404Z,47.72
2022-08-17T02:42:02.800Z,49.05
2022-08-17T02:44:39.294Z,53.92
2022-08-17T02:47:10.084Z,52.00
2022-08-17T02:49:38.784Z,53.17
2022-08-17T02:52:09.045Z,55.13
2022-08-17T02:54:42.239Z,57.08
2022-08-17T02:57:11.154Z,57.35
2022-08-17T02:59:39.753Z,49.63
2022-08-17T03:02:11.163Z,57.42
2022-08-17T03:04:39.616Z,51.42
2022-08-17T03:07:07.995Z,49.58
2022-08-17T03:09:36.533Z,51.75
2022-08-17T03:12:12.244Z,54.42
2022-08-17T03:14:41.872Z,48.92
2022-08-17T03:17:12.768Z,49.75
2022-08-17T03:19:46.266Z,44.50
2022-08-17T03:22:35.458Z,48.70
2022-08-17T03:25:02.956Z,47.70
2022-08-17T03:27:33.501Z,45.13
2022-08-17T03:30:01.640Z,44.28
2022-08-17T03:32:30.363Z,40.08
2022-08-17T03:35:04.897Z,47.95
2022-08-17T03:37:34.543Z,45.97
2022-08-17T03:40:05.829Z,41.50
2022-08-17T03:42:38.252Z,48.78
2022-08-17T03:45:08.507Z,46.22
2022-08-17T03:47:54.303Z,46.22
2022-08-17T03:50:40.159Z,51.80
2022-08-17T03:53:28.381Z,44.78
2022-08-17T03:56:17.373Z,48.83
2022-08-17T03:58:48.247Z,53.05
2022-08-17T04:01:16.901Z,52.33
2022-08-17T04:03:45.233Z,51.42
2022-08-17T04:06:13.569Z,54.83
2022-08-17T04:08:41.853Z,55.60
2022-08-17T04:11:10.949Z,58.03
2022-08-17T04:13:39.323Z,58.42
2022-08-17T04:16:09.327Z,51.42
2022-08-17T04:18:37.500Z,54.53
2022-08-17T04:21:05.953Z,57.63
2022-08-17T04:23:36.586Z,59.92
2022-08-17T04:26:05.448Z,58.17
2022-08-17T04:28:33.692Z,64.35
2022-08-17T04:31:02.053Z,59.42
2022-08-17T04:33:32.251Z,54.88
2022-08-17T04:36:02.357Z,53.97
2022-08-17T04:38:33.965Z,55.25
2022-08-17T04:41:20.082Z,57.10
2022-08-17T04:43:50.157Z,49.35
2022-08-17T04:46:21.220Z,51.22
2022-08-17T04:48:54.984Z,53.85
2022-08-17T04:51:26.227Z,53.00
2022-08-17T04:53:57.150Z,51.45
2022-08-17T04:56:27.475Z,57.75
2022-08-17T04:58:58.040Z,61.55
2022-08-17T05:01:28.126Z,53.15
2022-08-17T05:04:00.289Z,52.90
2022-08-17T05:06:49.684Z,56.42
2022-08-17T05:09:18.822Z,58.78
2022-08-17T05:11:47.625Z,56.10
2022-08-17T05:14:16.321Z,59.78
2022-08-17T05:16:46.031Z,60.33
2022-08-17T05:19:15.549Z,68.60
2022-08-17T05:21:43.840Z,57.00
2022-08-17T05:24:38.407Z,53.00
2022-08-17T05:27:06.663Z,59.65
2022-08-17T05:29:36.025Z,60.75
2022-08-17T05:32:38.922Z,72.05
2022-08-17T05:35:00.748Z,79.20
2022-08-17T05:37:29.289Z,75.70
2022-08-17T05:39:57.696Z,77.47
2022-08-17T05:42:26.248Z,69.88
2022-08-17T05:44:57.841Z,62.50
2022-08-17T05:47:28.007Z,67.78
2022-08-17T05:49:56.445Z,64.82
2022-08-17T05:52:34.820Z,66.88
2022-08-17T05:55:13.711Z,60.53
2022-08-17T05:57:53.536Z,63.55
2022-08-17T06:00:26.334Z,65.20
2022-08-17T06:03:27.314Z,83.53
2022-08-17T06:06:17.270Z,73.20
2022-08-17T06:08:52.444Z,66.40
2022-08-17T06:11:26.652Z,72.38
2022-08-17T06:14:15.326Z,66.22
2022-08-17T06:16:46.688Z,62.63
2022-08-17T06:19:20.088Z,61.20
2022-08-17T06:21:52.139Z,75.35
2022-08-17T06:24:28.994Z,80.90
2022-08-17T06:27:11.186Z,84.45
2022-08-17T06:29:46.313Z,86.88
2022-08-17T06:32:15.146Z,78.82
2022-08-17T06:34:45.216Z,78.68
2022-08-17T06:37:31.252Z,71.45
2022-08-17T06:40:15.811Z,93.45
2022-08-17T06:43:02.136Z,81.38
2022-08-17T06:45:40.108Z,66.18
2022-08-17T06:48:15.593Z,60.58
2022-08-17T06:50:48.988Z,88.85
2022-08-17T06:53:25.313Z,82.30
2022-08-17T06:56:00.624Z,84.20
2022-08-17T06:58:31.686Z,88.50
2022-08-17T07:01:07.466Z,81.75
2022-08-17T07:03:39.006Z,87.13
2022-08-17T07:06:12.310Z,77.28
2022-08-17T07:08:50.745Z,79.50
2022-08-17T07:11:37.279Z,72.63
2022-08-17T07:14:28.506Z,80.18
2022-08-17T07:16:59.491Z,81.80
2022-08-17T07:19:32.449Z,79.40
2022-08-17T07:22:08.575Z,77.57
2022-08-17T07:24:45.364Z,71.38
2022-08-17T07:27:18.206Z,80.43
2022-08-17T07:29:50.695Z,83.97
2022-08-17T07:32:24.279Z,83.82
2022-08-17T07:35:15.679Z,85.18
2022-08-17T07:37:53.212Z,79.28
2022-08-17T07:40:33.583Z,91.50
2022-08-17T07:43:22.239Z,79.25
2022-08-17T07:46:33.902Z,89.68
2022-08-17T07:49:22.100Z,92.40
2022-08-17T07:52:48.128Z,89.90
2022-08-17T07:54:54.579Z,85.13
2022-08-17T07:57:33.551Z,79.50
2022-08-17T08:00:19.558Z,86.55
2022-08-17T08:03:18.466Z,85.73
2022-08-17T08:05:57.626Z,81.63
2022-08-17T08:08:34.295Z,86.85
2022-08-17T08:11:07.300Z,82.45
2022-08-17T08:13:40.678Z,85.95
2022-08-17T08:19:01.914Z,82.38
2022-08-17T08:21:39.273Z,82.60
2022-08-17T08:24:30.024Z,85.43
2022-08-17T08:27:10.256Z,86.63
2022-08-17T08:29:45.443Z,86.82
2022-08-17T08:32:21.362Z,88.10
2022-08-17T08:35:03.371Z,84.20
2022-08-17T08:37:43.209Z,83.93
2022-08-17T08:40:26.971Z,87.05
2022-08-17T08:43:06.784Z,84.65
2022-08-17T08:45:46.966Z,87.68
2022-08-17T08:48:52.976Z,78.43
2022-08-17T08:51:23.622Z,77.63
2022-08-17T08:54:03.300Z,77.10
2022-08-17T08:56:39.701Z,73.00
2022-08-17T08:59:18.029Z,77.53
2022-08-17T09:01:55.991Z,79.53
2022-08-17T09:05:12.956Z,81.53
2022-08-17T09:07:49.198Z,82.20
2022-08-17T09:10:25.494Z,82.22
2022-08-17T09:13:10.198Z,84.85
2022-08-17T09:15:43.661Z,84.18
2022-08-17T09:18:59.409Z,82.57
2022-08-17T09:21:11.504Z,81.70
2022-08-17T09:23:49.601Z,80.20
2022-08-17T09:26:22.959Z,80.13
2022-08-17T09:31:27.688Z,68.18
2022-08-17T09:34:02.423Z,69.93
2022-08-17T09:36:34.620Z,62.75
2022-08-17T09:39:16.411Z,67.63
2022-08-17T09:41:51.664Z,62.85
2022-08-17T09:44:29.292Z,64.82
2022-08-17T09:47:05.915Z,69.43
2022-08-17T09:49:42.824Z,69.15
2022-08-17T09:52:18.484Z,69.03
2022-08-17T09:54:49.635Z,70.90
2022-08-17T09:57:32.130Z,67.28
2022-08-17T10:00:23.844Z,66.65
2022-08-17T10:03:26.151Z,64.30
2022-08-17T10:06:00.266Z,65.30
2022-08-17T10:08:37.463Z,63.88
2022-08-17T10:11:19.733Z,66.30
2022-08-17T10:13:58.743Z,64.80
2022-08-17T10:16:38.487Z,66.88
2022-08-17T10:19:20.726Z,62.85
2022-08-17T10:22:32.461Z,64.65
2022-08-17T10:25:23.776Z,63.60
2022-08-17T10:27:59.782Z,66.75
2022-08-17T10:30:32.296Z,55.88
2022-08-17T10:33:03.898Z,67.07
2022-08-17T10:35:44.336Z,63.75
2022-08-17T10:38:38.833Z,62.92
2022-08-17T10:41:27.818Z,59.30
2022-08-17T10:44:37.959Z,56.88
2022-08-17T10:47:04.531Z,64.78
2022-08-17T10:49:35.124Z,62.75
2022-08-17T10:52:06.118Z,62.50
2022-08-17T10:54:47.326Z,62.63
2022-08-17T10:57:37.533Z,63.50
2022-08-17T11:00:15.176Z,65.60
2022-08-17T11:02:52.456Z,65.10
2022-08-17T11:05:47.074Z,69.65
2022-08-17T11:08:30.885Z,69.15
2022-08-17T11:11:43.136Z,63.38
2022-08-17T11:14:33.200Z,58.08
2022-08-17T11:17:19.924Z,55.05
2022-08-17T11:20:19.701Z,54.65
2022-08-17T11:23:29.796Z,58.17
2022-08-17T11:26:04.123Z,56.78
2022-08-17T11:28:35.994Z,57.15
2022-08-17T11:31:10.888Z,61.90
2022-08-17T11:34:03.639Z,60.05
2022-08-17T11:36:53.639Z,61.35
2022-08-17T11:39:45.999Z,66.15
2022-08-17T11:42:29.868Z,61.97
2022-08-17T11:45:00.541Z,56.22
2022-08-17T11:48:23.594Z,55.65
2022-08-17T11:51:11.463Z,56.95
2022-08-17T11:54:31.228Z,52.45
2022-08-17T11:56:53.003Z,59.17
2022-08-17T11:59:59.823Z,61.00
2022-08-17T12:02:48.122Z,70.80
2022-08-17T12:05:35.389Z,64.05
2022-08-17T12:08:18.588Z,62.95
2022-08-17T12:11:04.602Z,59.05
2022-08-17T12:13:39.501Z,56.15
2022-08-17T12:16:10.111Z,61.03
2022-08-17T12:18:39.874Z,44.50
2022-08-17T12:21:37.775Z,23.08
2022-08-17T12:24:16.816Z,20.63
2022-08-17T12:26:53.330Z,17.45
2022-08-17T12:29:35.411Z,19.73
2022-08-17T12:32:14.140Z,19.60
2022-08-17T12:34:44.531Z,19.45
2022-08-17T12:37:16.593Z,23.63
2022-08-17T12:39:53.395Z,21.92
2022-08-17T12:42:31.183Z,20.42
2022-08-17T12:45:00.216Z,19.63
2022-08-17T12:47:30.105Z,19.63
2022-08-17T12:50:29.144Z,18.95
2022-08-17T12:53:01.951Z,19.70
2022-08-17T12:55:39.049Z,19.65
2022-08-17T12:58:14.521Z,21.02
2022-08-17T13:00:50.015Z,21.02
2022-08-17T13:03:21.003Z,20.05
2022-08-17T13:05:58.232Z,20.50
2022-08-17T13:08:32.520Z,21.02
2022-08-17T13:11:04.863Z,18.33
2022-08-17T13:13:35.324Z,18.58
2022-08-17T13:16:06.259Z,17.75
2022-08-17T13:18:41.829Z,16.33
2022-08-17T13:21:18.913Z,17.55
2022-08-17T13:23:57.051Z,16.83
2022-08-17T13:26:31.475Z,17.00
2022-08-17T13:29:00.551Z,17.70
2022-08-17T13:31:52.167Z,17.80
2022-08-17T13:34:56.163Z,18.27
2022-08-17T13:37:32.753Z,17.80
2022-08-17T13:40:05.475Z,17.58
2022-08-17T13:42:52.296Z,16.67
2022-08-17T13:45:53.281Z,18.13
2022-08-17T13:48:25.195Z,15.57
2022-08-17T13:51:08.378Z,16.63
2022-08-17T13:53:55.521Z,17.00
2022-08-17T13:56:40.009Z,15.05
2022-08-17T13:59:12.846Z,16.70
2022-08-17T14:01:43.183Z,14.68
2022-08-17T14:04:13.891Z,14.70
2022-08-17T14:06:51.888Z,13.32
2022-08-17T14:09:25.109Z,13.20
2022-08-17T14:11:54.515Z,13.20
2022-08-17T14:14:24.556Z,12.48
2022-08-17T14:16:52.917Z,12.88
2022-08-17T14:19:22.995Z,12.85
2022-08-17T14:21:51.849Z,12.38
2022-08-17T14:24:25.265Z,11.93
2022-08-17T14:26:54.242Z,11.98
2022-08-17T14:29:26.120Z,11.23
2022-08-17T14:31:54.905Z,11.27
2022-08-17T14:34:23.697Z,11.77
2022-08-17T14:36:52.683Z,11.68
2022-08-17T14:39:21.481Z,13.48
2022-08-17T14:41:50.039Z,14.00
2022-08-17T14:44:18.213Z,14.07
2022-08-17T14:46:48.112Z,13.70
2022-08-17T14:49:17.218Z,15.30
2022-08-17T14:51:45.417Z,16.55
2022-08-17T14:54:32.952Z,16.88
2022-08-17T14:57:24.658Z,15.35
2022-08-17T14:59:54.932Z,15.75
2022-08-17T15:02:29.688Z,16.65
2022-08-17T15:05:02.007Z,18.20
2022-08-17T15:07:31.179Z,15.48
2022-08-17T15:10:01.343Z,14.63
2022-08-17T15:12:34.724Z,16.23
2022-08-17T15:15:04.808Z,18.10
2022-08-17T15:17:44.376Z,14.95
2022-08-17T15:20:17.192Z,16.73
2022-08-17T15:22:49.726Z,16.60
2022-08-17T15:25:20.099Z,16.10
2022-08-17T15:27:48.460Z,17.40
2022-08-17T15:30:17.338Z,15.63
2022-08-17T15:32:54.557Z,17.38
2022-08-17T15:35:28.026Z,15.23
2022-08-17T15:38:06.116Z,16.52
2022-08-17T15:40:41.115Z,14.98
2022-08-17T15:43:11.602Z,14.35
2022-08-17T15:45:40.619Z,14.98
2022-08-17T15:48:10.893Z,13.85
2022-08-17T15:50:39.131Z,14.73
2022-08-17T15:53:07.245Z,15.40
2022-08-17T15:55:36.870Z,16.23
2022-08-17T15:58:07.789Z,15.63
2022-08-17T16:00:49.432Z,16.50
2022-08-17T16:03:57.422Z,17.85
2022-08-17T16:06:15.554Z,16.75
2022-08-17T16:08:45.611Z,17.65
2022-08-17T16:11:15.430Z,19.90
2022-08-17T16:13:54.870Z,18.25
2022-08-17T16:16:24.863Z,18.05
2022-08-17T16:18:58.377Z,18.42
2022-08-17T16:21:27.675Z,19.60
2022-08-17T16:23:58.026Z,21.25
2022-08-17T16:26:27.600Z,22.25
2022-08-17T16:28:56.472Z,20.80
2022-08-17T16:31:25.200Z,21.98
2022-08-17T16:34:16.347Z,22.00
2022-08-17T16:36:54.658Z,21.95
2022-08-17T16:39:24.398Z,21.67
2022-08-17T16:41:52.756Z,19.45
2022-08-17T16:44:22.052Z,20.92
2022-08-17T16:46:51.251Z,18.25
2022-08-17T16:49:35.404Z,20.08
2022-08-17T16:52:06.227Z,19.02
2022-08-17T16:54:35.641Z,18.73
2022-08-17T16:57:05.326Z,20.13
2022-08-17T16:59:41.006Z,18.90
2022-08-17T17:02:16.201Z,20.27
2022-08-17T17:04:52.911Z,20.50
2022-08-17T17:07:41.556Z,19.52
2022-08-17T17:10:12.137Z,19.92
2022-08-17T17:13:01.429Z,20.33
2022-08-17T17:15:44.740Z,19.08
2022-08-17T17:18:15.595Z,19.30
2022-08-17T17:20:50.863Z,19.50
2022-08-17T17:23:34.581Z,19.55
2022-08-17T17:26:12.765Z,20.95
2022-08-17T17:28:51.049Z,22.35
2022-08-17T17:31:23.758Z,21.85
2022-08-17T17:33:57.154Z,22.23
2022-08-17T17:39:04.124Z,22.55
2022-08-17T17:41:38.103Z,23.48
2022-08-17T17:44:12.906Z,22.60
2022-08-17T17:46:49.255Z,24.20
2022-08-17T17:49:18.365Z,22.73
2022-08-17T17:52:10.125Z,22.88
2022-08-17T17:54:54.159Z,21.23
2022-08-17T17:57:30.773Z,21.42
2022-08-17T18:00:08.202Z,21.55
2022-08-17T18:02:51.480Z,21.48
2022-08-17T18:05:35.119Z,21.30
2022-08-17T18:08:14.776Z,21.13
2022-08-17T18:11:04.765Z,20.60
2022-08-17T18:13:43.915Z,18.33
2022-08-17T18:16:15.122Z,18.73
2022-08-17T18:18:44.789Z,21.40
2022-08-17T18:21:19.613Z,19.38
2022-08-17T18:23:53.403Z,20.58
2022-08-17T18:26:44.989Z,22.30
2022-08-17T18:29:43.531Z,21.02
2022-08-17T18:32:19.866Z,22.13
2022-08-17T18:34:50.497Z,22.55
2022-08-17T18:37:36.247Z,23.58
2022-08-17T18:40:29.624Z,22.67
2022-08-17T18:43:09.966Z,23.83
2022-08-17T18:45:45.365Z,24.58
2022-08-17T18:48:26.976Z,24.05
2022-08-17T18:50:57.723Z,24.02
2022-08-17T18:53:47.004Z,24.52
2022-08-17T18:56:31.307Z,23.92
2022-08-17T18:59:35.184Z,23.45
2022-08-17T19:02:45.824Z,22.42
2022-08-17T19:05:14.749Z,25.27
2022-08-17T19:07:45.260Z,24.48
2022-08-17T19:10:22.838Z,24.77
2022-08-17T19:13:00.333Z,26.27
2022-08-17T19:15:39.985Z,25.88
2022-08-17T19:18:15.965Z,25.30
2022-08-17T19:20:48.226Z,25.40
2022-08-17T19:23:22.294Z,26.38
2022-08-17T19:25:52.830Z,26.88
2022-08-17T19:28:26.002Z,25.58
2022-08-17T19:30:59.523Z,29.20
2022-08-17T19:36:04.534Z,30.50
2022-08-17T19:38:46.867Z,32.47
2022-08-17T19:41:23.758Z,31.35
2022-08-17T19:44:19.649Z,36.38
2022-08-17T19:46:56.215Z,36.60
2022-08-17T19:49:46.682Z,36.67
2022-08-17T19:52:34.664Z,36.95
2022-08-17T19:55:10.220Z,37.03
2022-08-17T19:57:47.791Z,37.88
2022-08-17T20:00:19.351Z,37.28
2022-08-17T20:02:56.198Z,36.10
2022-08-17T20:05:28.537Z,36.55
2022-08-17T20:08:01.797Z,35.60
2022-08-17T20:10:40.709Z,39.65
2022-08-17T20:13:12.437Z,36.45
2022-08-17T20:15:44.008Z,35.28
2022-08-17T20:18:21.073Z,35.65
2022-08-17T20:20:59.698Z,38.35
2022-08-17T20:23:40.296Z,37.30
2022-08-17T20:26:19.422Z,40.63
2022-08-17T20:29:31.895Z,39.50
2022-08-17T20:32:28.055Z,40.50
2022-08-17T20:35:10.439Z,40.35
2022-08-17T20:37:44.477Z,38.40
2022-08-17T20:40:20.583Z,40.58
2022-08-17T20:42:49.027Z,42.13
2022-08-17T20:45:57.774Z,38.92
2022-08-17T20:48:38.303Z,40.30
2022-08-17T20:51:32.943Z,40.45
2022-08-17T20:56:58.627Z,44.08
2022-08-17T20:59:56.406Z,38.83
2022-08-17T21:02:27.322Z,37.58
2022-08-17T21:05:22.923Z,39.63
2022-08-17T21:07:58.947Z,40.35
2022-08-17T21:10:36.528Z,38.28
2022-08-17T21:13:39.276Z,38.70
2022-08-17T21:16:24.096Z,34.85
2022-08-17T21:18:59.076Z,39.80
2022-08-17T21:21:33.819Z,37.08
2022-08-17T21:24:19.448Z,39.60
2022-08-17T21:26:57.730Z,37.92
2022-08-17T21:29:32.315Z,39.28
2022-08-17T21:32:23.733Z,39.38
2022-08-17T21:35:32.743Z,40.60
2022-08-17T21:38:15.020Z,42.90
2022-08-17T21:40:49.998Z,47.30
2022-08-17T21:43:24.595Z,48.00
2022-08-17T21:45:59.808Z,43.70
2022-08-17T21:48:29.655Z,47.28
2022-08-17T21:51:01.789Z,43.03
2022-08-17T21:53:38.465Z,42.50
2022-08-17T21:56:07.738Z,46.75
2022-08-17T21:58:40.397Z,47.10
2022-08-17T22:01:24.702Z,46.37
2022-08-17T22:03:59.695Z,46.38
2022-08-17T22:06:30.713Z,45.72
2022-08-17T22:09:18.104Z,43.58
2022-08-17T22:11:53.389Z,49.88
2022-08-17T22:14:23.818Z,50.15
2022-08-17T22:17:08.493Z,50.95
2022-08-17T22:19:38.716Z,46.63
2022-08-17T22:22:09.117Z,46.22
2022-08-17T22:24:39.605Z,51.58
2022-08-17T22:27:11.064Z,47.88
2022-08-17T22:29:57.509Z,43.40
2022-08-17T22:32:50.447Z,45.72
2022-08-17T22:35:38.077Z,41.35
2022-08-17T22:38:32.178Z,46.05
2022-08-17T22:43:49.144Z,47.38
2022-08-17T22:46:22.098Z,46.75
2022-08-17T22:48:53.448Z,50.10
2022-08-17T22:51:24.611Z,51.42
2022-08-17T22:54:12.645Z,49.17
2022-08-17T22:57:07.230Z,45.20
2022-08-17T22:59:46.712Z,51.05
2022-08-17T23:02:22.550Z,51.42
2022-08-17T23:04:53.730Z,54.38
2022-08-17T23:07:22.428Z,54.28
2022-08-17T23:09:52.343Z,52.88
2022-08-17T23:12:26.442Z,55.05
2022-08-17T23:15:01.778Z,55.67
2022-08-17T23:17:47.135Z,55.70
2022-08-17T23:20:17.788Z,56.10
2022-08-17T23:22:51.834Z,57.15
2022-08-17T23:25:28.252Z,59.47
2022-08-17T23:28:01.560Z,55.47
2022-08-17T23:30:33.060Z,56.83
2022-08-17T23:33:04.987Z,60.60
2022-08-17T23:35:40.539Z,54.47
2022-08-17T23:38:10.360Z,56.15
2022-08-17T23:40:40.101Z,53.35
2022-08-17T23:43:17.559Z,52.80
2022-08-17T23:45:55.319Z,56.88
2022-08-17T23:48:36.010Z,58.08
2022-08-17T23:51:09.862Z,56.22
2022-08-17T23:53:41.988Z,53.63
2022-08-17T23:56:11.760Z,54.40
2022-08-17T23:58:42.311Z,56.20
